FLASH11 ETNL-ETNL
Flight info
| Callsign | FLASH11 |
|---|---|
| Flight time | N/A |
| Altitude | 35000 |
| Route | NL227 ROSOK M726 SALLO REMSA DCT ESS1 STAY01/0040 ESS1 DCT REMSA STAY02/0030 REMSA UNGAV M864 PEROM LAG |
| Aircraft | EUFI/M-GILRTUY/S |
Departure
| Time | 2026-04-24 20:16 |
|---|---|
| Airport | Rostock-Laage Airport (ETNL) |
Arrival
| Time | N/A |
|---|---|
| Airport | Rostock-Laage Airport (ETNL) |
| Time | Latitude | Longitude | Altitude | Speed | Heading |
|---|---|---|---|---|---|
| 2026-04-24 19:46 | 53.92166 | 12.26868 | 145 ft | 0 kts | 188° |
| 2026-04-24 20:06 | 53.92146 | 12.26863 | 145 ft | 0 kts | 185° |
| 2026-04-24 20:06 | 53.92145 | 12.26863 | 145 ft | 0 kts | 185° |
| 2026-04-24 20:06 | 53.92131 | 12.26948 | 145 ft | 10 kts | 97° |
| 2026-04-24 20:06 | 53.92122 | 12.27064 | 145 ft | 11 kts | 98° |
| 2026-04-24 20:07 | 53.92133 | 12.27139 | 145 ft | 11 kts | 26° |
| 2026-04-24 20:07 | 53.92171 | 12.27257 | 145 ft | 11 kts | 98° |
| 2026-04-24 20:07 | 53.92158 | 12.27419 | 145 ft | 16 kts | 97° |
| 2026-04-24 20:07 | 53.92141 | 12.27633 | 145 ft | 20 kts | 98° |
| 2026-04-24 20:08 | 53.92120 | 12.27884 | 145 ft | 23 kts | 98° |
| 2026-04-24 20:08 | 53.92097 | 12.28167 | 145 ft | 25 kts | 97° |
| 2026-04-24 20:08 | 53.92075 | 12.28468 | 145 ft | 26 kts | 97° |
| 2026-04-24 20:08 | 53.92048 | 12.28757 | 145 ft | 25 kts | 100° |
| 2026-04-24 20:09 | 53.92024 | 12.29032 | 145 ft | 23 kts | 97° |
| 2026-04-24 20:09 | 53.91981 | 12.29222 | 145 ft | 15 kts | 174° |
| 2026-04-24 20:09 | 53.91942 | 12.29340 | 145 ft | 12 kts | 96° |
| 2026-04-24 20:09 | 53.91932 | 12.29483 | 145 ft | 14 kts | 97° |
| 2026-04-24 20:10 | 53.91913 | 12.29704 | 145 ft | 16 kts | 97° |
| 2026-04-24 20:10 | 53.91948 | 12.29799 | 145 ft | 8 kts | 48° |
| 2026-04-24 20:10 | 53.91947 | 12.29820 | 145 ft | 0 kts | 115° |
| 2026-04-24 20:13 | 53.91946 | 12.29820 | 145 ft | 1 kts | 118° |
| 2026-04-24 20:13 | 53.91882 | 12.29791 | 145 ft | 11 kts | 180° |
| 2026-04-24 20:13 | 53.91812 | 12.29796 | 145 ft | 10 kts | 177° |
| 2026-04-24 20:13 | 53.91755 | 12.29797 | 146 ft | 0 kts | 181° |
| 2026-04-24 20:14 | 53.91706 | 12.29793 | 147 ft | 10 kts | 186° |
| 2026-04-24 20:15 | 53.91682 | 12.29675 | 147 ft | 16 kts | 278° |
| 2026-04-24 20:15 | 53.91690 | 12.29568 | 147 ft | 0 kts | 276° |
| 2026-04-24 20:15 | 53.91702 | 12.29428 | 147 ft | 64 kts | 277° |
| 2026-04-24 20:15 | 53.91831 | 12.27729 | 159 ft | 206 kts | 279° |
| 2026-04-24 20:16 | 53.92041 | 12.25011 | 1065 ft | 258 kts | 277° |
| 2026-04-24 20:16 | 53.92177 | 12.22835 | 2040 ft | 290 kts | 274° |
| 2026-04-24 20:16 | 53.91808 | 12.19304 | 3749 ft | 326 kts | 250° |
| 2026-04-24 20:17 | 53.89591 | 12.06132 | 12251 ft | 298 kts | 288° |
| 2026-04-24 20:18 | 53.93260 | 12.01057 | 18844 ft | 207 kts | 356° |
| 2026-04-24 20:19 | 53.99272 | 12.03340 | 21820 ft | 180 kts | 2° |
| 2026-04-24 20:20 | 54.08118 | 12.05844 | 22841 ft | 372 kts | 8° |
| 2026-04-24 20:20 | 54.10777 | 12.06908 | 23418 ft | 414 kts | 9° |
| 2026-04-24 20:21 | 54.13947 | 12.08152 | 24086 ft | 454 kts | 9° |
| 2026-04-24 20:21 | 54.16960 | 12.09364 | 24723 ft | 488 kts | 11° |
| 2026-04-24 20:21 | 54.20344 | 12.11016 | 25528 ft | 523 kts | 14° |
| 2026-04-24 20:21 | 54.23619 | 12.12940 | 26266 ft | 549 kts | 17° |
| 2026-04-24 20:22 | 54.27172 | 12.15540 | 26984 ft | 559 kts | 22° |
| 2026-04-24 20:22 | 54.30573 | 12.18773 | 27916 ft | 560 kts | 29° |
| 2026-04-24 20:22 | 54.33795 | 12.22577 | 28741 ft | 562 kts | 32° |
| 2026-04-24 20:22 | 54.36954 | 12.26551 | 29461 ft | 563 kts | 33° |
| 2026-04-24 20:23 | 54.40037 | 12.30589 | 30127 ft | 563 kts | 33° |
| 2026-04-24 20:23 | 54.43113 | 12.34667 | 30713 ft | 547 kts | 34° |
| 2026-04-24 20:23 | 54.46084 | 12.38657 | 31221 ft | 535 kts | 34° |
| 2026-04-24 20:23 | 54.48957 | 12.42521 | 31761 ft | 526 kts | 34° |
| 2026-04-24 20:24 | 54.51818 | 12.46368 | 32345 ft | 516 kts | 34° |
| 2026-04-24 20:24 | 54.54579 | 12.50083 | 32837 ft | 489 kts | 34° |
| 2026-04-24 20:24 | 54.57179 | 12.53594 | 33276 ft | 460 kts | 34° |
| 2026-04-24 20:24 | 54.59391 | 12.57440 | 33650 ft | 439 kts | 49° |
| 2026-04-24 20:25 | 54.61059 | 12.61593 | 33985 ft | 414 kts | 52° |
| 2026-04-24 20:25 | 54.62578 | 12.65604 | 34169 ft | 382 kts | 52° |
| 2026-04-24 20:25 | 54.63982 | 12.69292 | 34161 ft | 351 kts | 51° |
| 2026-04-24 20:25 | 54.65283 | 12.72640 | 34074 ft | 319 kts | 50° |
| 2026-04-24 20:26 | 54.67704 | 12.78850 | 33950 ft | 314 kts | 49° |
| 2026-04-24 20:26 | 54.68991 | 12.82049 | 33946 ft | 344 kts | 48° |
| 2026-04-24 20:26 | 54.70457 | 12.85404 | 33824 ft | 362 kts | 46° |
| 2026-04-24 20:27 | 54.73654 | 12.92017 | 33640 ft | 339 kts | 42° |
| 2026-04-24 20:27 | 54.75211 | 12.95114 | 34008 ft | 345 kts | 42° |
| 2026-04-24 20:27 | 54.76806 | 12.98277 | 34466 ft | 352 kts | 42° |
| 2026-04-24 20:28 | 54.78415 | 13.01456 | 35003 ft | 357 kts | 42° |
| 2026-04-24 20:28 | 54.80114 | 13.04753 | 35149 ft | 370 kts | 42° |
| 2026-04-24 20:28 | 54.81871 | 13.08055 | 35265 ft | 367 kts | 41° |
| 2026-04-24 20:28 | 54.83590 | 13.11220 | 35058 ft | 358 kts | 40° |
| 2026-04-24 20:29 | 54.87086 | 13.17325 | 34963 ft | 360 kts | 37° |
| 2026-04-24 20:29 | 54.90765 | 13.22955 | 34944 ft | 362 kts | 32° |
| 2026-04-24 20:30 | 54.92981 | 13.25923 | 34989 ft | 448 kts | 31° |
| 2026-04-24 20:30 | 54.95876 | 13.29431 | 35043 ft | 554 kts | 29° |
| 2026-04-24 20:30 | 55.02374 | 13.36666 | 35031 ft | 536 kts | 26° |
| 2026-04-24 20:31 | 55.08894 | 13.43284 | 35036 ft | 545 kts | 24° |
| 2026-04-24 20:31 | 55.15383 | 13.50010 | 35021 ft | 549 kts | 31° |
| 2026-04-24 20:32 | 55.21422 | 13.58361 | 34993 ft | 552 kts | 34° |
| 2026-04-24 20:32 | 55.27282 | 13.67010 | 34973 ft | 553 kts | 35° |
| 2026-04-24 20:33 | 55.32853 | 13.76491 | 34967 ft | 560 kts | 43° |
| 2026-04-24 20:33 | 55.37891 | 13.86876 | 34963 ft | 562 kts | 45° |
| 2026-04-24 20:34 | 55.42846 | 13.97493 | 34961 ft | 562 kts | 45° |
| 2026-04-24 20:34 | 55.47729 | 14.08103 | 34956 ft | 562 kts | 45° |
| 2026-04-24 20:35 | 55.52613 | 14.18810 | 34950 ft | 563 kts | 45° |
| 2026-04-24 20:35 | 55.57519 | 14.29636 | 34946 ft | 562 kts | 45° |
| 2026-04-24 20:36 | 55.62377 | 14.40425 | 34939 ft | 562 kts | 45° |
| 2026-04-24 20:36 | 55.67215 | 14.51238 | 34934 ft | 562 kts | 45° |
| 2026-04-24 20:37 | 55.71251 | 14.60310 | 34931 ft | 561 kts | 45° |
| 2026-04-24 20:37 | 55.75633 | 14.70213 | 34926 ft | 561 kts | 46° |
| 2026-04-24 20:38 | 55.80695 | 14.80742 | 34921 ft | 557 kts | 41° |
| 2026-04-24 20:38 | 55.85918 | 14.90932 | 34921 ft | 555 kts | 41° |
| 2026-04-24 20:39 | 55.91122 | 15.01003 | 34920 ft | 555 kts | 41° |
| 2026-04-24 20:39 | 55.96361 | 15.11159 | 34907 ft | 554 kts | 41° |
| 2026-04-24 20:40 | 56.01545 | 15.21247 | 34902 ft | 554 kts | 41° |
| 2026-04-24 20:40 | 56.06776 | 15.31466 | 34896 ft | 554 kts | 41° |
| 2026-04-24 20:41 | 56.12074 | 15.41459 | 34828 ft | 568 kts | 37° |
| 2026-04-24 20:41 | 56.17849 | 15.51274 | 34745 ft | 574 kts | 37° |
| 2026-04-24 20:42 | 56.23529 | 15.61391 | 34778 ft | 579 kts | 39° |
| 2026-04-24 20:42 | 56.29139 | 15.71834 | 34838 ft | 580 kts | 40° |
| 2026-04-24 20:43 | 56.34706 | 15.82308 | 34885 ft | 580 kts | 40° |
| 2026-04-24 20:43 | 56.40299 | 15.92863 | 34903 ft | 572 kts | 40° |
| 2026-04-24 20:44 | 56.45640 | 16.03022 | 35036 ft | 540 kts | 40° |
| 2026-04-24 20:44 | 56.50906 | 16.13073 | 35024 ft | 551 kts | 40° |
| 2026-04-24 20:45 | 56.56140 | 16.23063 | 34997 ft | 548 kts | 40° |
| 2026-04-24 20:45 | 56.58772 | 16.28085 | 35220 ft | 548 kts | 40° |
| 2026-04-24 20:45 | 56.61420 | 16.33121 | 35061 ft | 557 kts | 40° |
| 2026-04-24 20:46 | 56.64109 | 16.38149 | 34278 ft | 545 kts | 39° |
| 2026-04-24 20:46 | 56.66771 | 16.42809 | 33596 ft | 531 kts | 36° |
| 2026-04-24 20:46 | 56.69466 | 16.47373 | 32905 ft | 522 kts | 36° |
| 2026-04-24 20:46 | 56.72131 | 16.51830 | 32246 ft | 515 kts | 36° |
| 2026-04-24 20:47 | 56.74710 | 16.56192 | 31716 ft | 508 kts | 36° |
| 2026-04-24 20:47 | 56.77280 | 16.60591 | 31183 ft | 503 kts | 36° |
| 2026-04-24 20:47 | 56.79832 | 16.64956 | 30634 ft | 497 kts | 36° |
| 2026-04-24 20:47 | 56.82309 | 16.69197 | 30168 ft | 488 kts | 36° |
| 2026-04-24 20:48 | 56.84795 | 16.73462 | 29994 ft | 487 kts | 36° |
| 2026-04-24 20:48 | 56.87157 | 16.77905 | 29800 ft | 501 kts | 47° |
| 2026-04-24 20:48 | 56.88576 | 16.83899 | 29199 ft | 526 kts | 72° |
| 2026-04-24 20:48 | 56.89249 | 16.90348 | 28937 ft | 513 kts | 72° |
| 2026-04-24 20:49 | 56.89924 | 16.96820 | 29175 ft | 523 kts | 72° |
| 2026-04-24 20:49 | 56.90623 | 17.03396 | 29471 ft | 522 kts | 72° |
| 2026-04-24 20:49 | 56.91307 | 17.09869 | 29705 ft | 527 kts | 72° |
| 2026-04-24 20:49 | 56.92013 | 17.16517 | 29107 ft | 523 kts | 72° |
| 2026-04-24 20:50 | 56.92720 | 17.23007 | 28311 ft | 513 kts | 72° |
| 2026-04-24 20:50 | 56.93432 | 17.29281 | 27436 ft | 504 kts | 72° |
| 2026-04-24 20:50 | 56.94140 | 17.35517 | 26661 ft | 495 kts | 72° |
| 2026-04-24 20:50 | 56.94806 | 17.41694 | 26010 ft | 493 kts | 76° |
| 2026-04-24 20:51 | 56.94811 | 17.48013 | 25284 ft | 499 kts | 96° |
| 2026-04-24 20:51 | 56.93694 | 17.53964 | 24698 ft | 503 kts | 116° |
| 2026-04-24 20:51 | 56.91587 | 17.59075 | 24128 ft | 503 kts | 137° |
| 2026-04-24 20:51 | 56.88627 | 17.62336 | 24092 ft | 501 kts | 162° |
| 2026-04-24 20:52 | 56.85191 | 17.63700 | 23820 ft | 503 kts | 173° |
| 2026-04-24 20:52 | 56.81754 | 17.64153 | 23439 ft | 489 kts | 188° |
| 2026-04-24 20:52 | 56.78450 | 17.63100 | 22990 ft | 486 kts | 197° |
| 2026-04-24 20:52 | 56.75235 | 17.61420 | 22667 ft | 473 kts | 203° |
| 2026-04-24 20:53 | 56.72119 | 17.59340 | 22777 ft | 478 kts | 206° |
| 2026-04-24 20:53 | 56.69050 | 17.57000 | 23006 ft | 478 kts | 208° |
| 2026-04-24 20:53 | 56.66118 | 17.54308 | 23086 ft | 477 kts | 216° |
| 2026-04-24 20:53 | 56.63389 | 17.50916 | 23226 ft | 483 kts | 223° |
| 2026-04-24 20:54 | 56.60673 | 17.47105 | 23240 ft | 497 kts | 223° |
| 2026-04-24 20:54 | 56.57918 | 17.43186 | 23324 ft | 515 kts | 224° |
| 2026-04-24 20:54 | 56.54970 | 17.38929 | 23395 ft | 566 kts | 224° |
| 2026-04-24 20:54 | 56.51887 | 17.34430 | 23454 ft | 577 kts | 224° |
| 2026-04-24 20:55 | 56.48768 | 17.29864 | 23552 ft | 577 kts | 224° |
| 2026-04-24 20:55 | 56.45678 | 17.25192 | 23781 ft | 576 kts | 226° |
| 2026-04-24 20:55 | 56.42749 | 17.20226 | 23945 ft | 573 kts | 230° |
| 2026-04-24 20:55 | 56.39944 | 17.15207 | 24079 ft | 573 kts | 231° |
| 2026-04-24 20:56 | 56.37127 | 17.10106 | 24156 ft | 575 kts | 231° |
| 2026-04-24 20:56 | 56.34361 | 17.04879 | 24038 ft | 577 kts | 232° |
| 2026-04-24 20:56 | 56.31588 | 16.99610 | 23744 ft | 580 kts | 232° |
| 2026-04-24 20:56 | 56.28833 | 16.94274 | 23298 ft | 582 kts | 233° |
| 2026-04-24 20:57 | 56.26113 | 16.88846 | 22743 ft | 581 kts | 234° |
| 2026-04-24 20:57 | 56.25255 | 16.87068 | 22716 ft | 579 kts | 234° |
| 2026-04-24 20:57 | 56.23502 | 16.83425 | 22700 ft | 579 kts | 234° |
| 2026-04-24 20:57 | 56.20856 | 16.77942 | 22355 ft | 594 kts | 234° |
| 2026-04-24 20:58 | 56.18120 | 16.72270 | 22288 ft | 596 kts | 234° |
| 2026-04-24 20:58 | 56.15440 | 16.66692 | 22300 ft | 594 kts | 234° |
| 2026-04-24 20:58 | 56.12724 | 16.61078 | 22466 ft | 592 kts | 234° |
| 2026-04-24 20:58 | 56.10024 | 16.55565 | 22853 ft | 589 kts | 234° |
| 2026-04-24 20:59 | 56.07310 | 16.50045 | 23474 ft | 574 kts | 234° |
| 2026-04-24 20:59 | 56.04799 | 16.44730 | 23841 ft | 557 kts | 238° |
| 2026-04-24 20:59 | 56.02320 | 16.41929 | 24213 ft | 278 kts | 249° |
| 2026-04-24 20:59 | 56.01537 | 16.39332 | 23762 ft | 270 kts | 241° |
| 2026-04-24 21:00 | 56.00056 | 16.36499 | 23600 ft | 367 kts | 237° |
| 2026-04-24 21:00 | 55.97980 | 16.32273 | 23575 ft | 512 kts | 236° |
| 2026-04-24 21:00 | 55.95715 | 16.27674 | 23600 ft | 477 kts | 236° |
| 2026-04-24 21:00 | 55.93489 | 16.23042 | 23793 ft | 485 kts | 237° |
| 2026-04-24 21:01 | 55.91412 | 16.18875 | 23875 ft | 418 kts | 236° |
| 2026-04-24 21:01 | 55.89502 | 16.15301 | 23874 ft | 390 kts | 235° |
| 2026-04-24 21:01 | 55.87611 | 16.11737 | 23894 ft | 409 kts | 236° |
| 2026-04-24 21:01 | 55.85694 | 16.08043 | 23895 ft | 404 kts | 236° |
| 2026-04-24 21:02 | 55.84443 | 16.05543 | 23889 ft | 412 kts | 236° |
| 2026-04-24 21:02 | 55.82553 | 16.01923 | 23883 ft | 403 kts | 236° |
| 2026-04-24 21:02 | 55.80626 | 15.98248 | 23863 ft | 400 kts | 236° |
| 2026-04-24 21:02 | 55.78755 | 15.94686 | 23884 ft | 394 kts | 236° |
| 2026-04-24 21:03 | 55.76869 | 15.91089 | 23923 ft | 391 kts | 236° |
| 2026-04-24 21:03 | 55.74997 | 15.87479 | 23937 ft | 402 kts | 236° |
| 2026-04-24 21:03 | 55.73139 | 15.83906 | 23920 ft | 396 kts | 236° |
| 2026-04-24 21:03 | 55.71283 | 15.80326 | 23937 ft | 394 kts | 236° |
| 2026-04-24 21:04 | 55.69641 | 15.76539 | 23915 ft | 375 kts | 250° |
| 2026-04-24 21:04 | 55.68732 | 15.72297 | 23925 ft | 373 kts | 266° |
| 2026-04-24 21:04 | 55.68631 | 15.67859 | 23933 ft | 345 kts | 283° |
| 2026-04-24 21:04 | 55.69313 | 15.63821 | 23930 ft | 348 kts | 301° |
| 2026-04-24 21:05 | 55.70735 | 15.60416 | 23927 ft | 335 kts | 318° |
| 2026-04-24 21:05 | 55.72657 | 15.58158 | 23929 ft | 331 kts | 335° |
| 2026-04-24 21:05 | 55.74997 | 15.57168 | 23945 ft | 370 kts | 353° |
| 2026-04-24 21:05 | 55.77397 | 15.57600 | 23929 ft | 340 kts | 8° |
| 2026-04-24 21:06 | 55.79749 | 15.59439 | 23926 ft | 401 kts | 24° |
| 2026-04-24 21:06 | 55.81824 | 15.62756 | 23940 ft | 408 kts | 44° |
| 2026-04-24 21:06 | 55.83372 | 15.66920 | 24106 ft | 404 kts | 52° |
| 2026-04-24 21:06 | 55.84609 | 15.71363 | 24069 ft | 393 kts | 59° |
| 2026-04-24 21:07 | 55.85631 | 15.75757 | 23904 ft | 393 kts | 57° |
| 2026-04-24 21:07 | 55.86886 | 15.80391 | 23849 ft | 429 kts | 56° |
| 2026-04-24 21:07 | 55.88174 | 15.85078 | 23900 ft | 411 kts | 56° |
| 2026-04-24 21:07 | 55.89406 | 15.89582 | 23921 ft | 398 kts | 55° |
| 2026-04-24 21:08 | 55.90657 | 15.93888 | 23861 ft | 391 kts | 53° |
| 2026-04-24 21:08 | 55.91880 | 15.98269 | 23816 ft | 396 kts | 57° |
| 2026-04-24 21:08 | 55.92960 | 16.02770 | 23735 ft | 396 kts | 55° |
| 2026-04-24 21:08 | 55.94372 | 16.06907 | 23671 ft | 386 kts | 45° |
| 2026-04-24 21:09 | 55.95966 | 16.10756 | 23645 ft | 386 kts | 44° |
| 2026-04-24 21:09 | 55.97585 | 16.14623 | 23564 ft | 388 kts | 44° |
| 2026-04-24 21:09 | 55.99203 | 16.18543 | 23499 ft | 392 kts | 46° |
| 2026-04-24 21:09 | 56.00703 | 16.22567 | 23457 ft | 395 kts | 49° |
| 2026-04-24 21:10 | 56.02193 | 16.26724 | 23431 ft | 396 kts | 49° |
| 2026-04-24 21:10 | 56.03671 | 16.30763 | 23690 ft | 386 kts | 47° |
| 2026-04-24 21:10 | 56.05266 | 16.34710 | 23940 ft | 388 kts | 45° |
| 2026-04-24 21:10 | 56.06873 | 16.38599 | 24058 ft | 397 kts | 46° |
| 2026-04-24 21:11 | 56.08454 | 16.42710 | 24122 ft | 404 kts | 48° |
| 2026-04-24 21:11 | 56.10031 | 16.46949 | 24157 ft | 410 kts | 47° |
| 2026-04-24 21:11 | 56.11654 | 16.51241 | 24114 ft | 418 kts | 47° |
| 2026-04-24 21:11 | 56.13287 | 16.55525 | 24097 ft | 422 kts | 47° |
| 2026-04-24 21:12 | 56.14952 | 16.59874 | 24005 ft | 411 kts | 47° |
| 2026-04-24 21:12 | 56.16497 | 16.63976 | 23936 ft | 389 kts | 47° |
| 2026-04-24 21:12 | 56.17972 | 16.67884 | 23876 ft | 374 kts | 46° |
| 2026-04-24 21:12 | 56.19473 | 16.71691 | 23864 ft | 373 kts | 45° |
| 2026-04-24 21:13 | 56.20988 | 16.75504 | 23919 ft | 373 kts | 45° |
| 2026-04-24 21:13 | 56.22500 | 16.79304 | 24005 ft | 373 kts | 45° |
| 2026-04-24 21:13 | 56.23996 | 16.83053 | 24052 ft | 374 kts | 44° |
| 2026-04-24 21:13 | 56.25652 | 16.86637 | 24083 ft | 370 kts | 41° |
| 2026-04-24 21:14 | 56.27294 | 16.90218 | 24164 ft | 372 kts | 43° |
| 2026-04-24 21:14 | 56.28792 | 16.94131 | 24115 ft | 383 kts | 50° |
| 2026-04-24 21:14 | 56.30126 | 16.98299 | 24009 ft | 391 kts | 52° |
| 2026-04-24 21:14 | 56.31513 | 17.02565 | 23950 ft | 399 kts | 49° |
| 2026-04-24 21:15 | 56.33064 | 17.06882 | 23917 ft | 421 kts | 46° |
| 2026-04-24 21:15 | 56.34858 | 17.11316 | 23732 ft | 459 kts | 46° |
| 2026-04-24 21:15 | 56.36820 | 17.15888 | 23613 ft | 430 kts | 44° |
| 2026-04-24 21:15 | 56.38518 | 17.19690 | 23476 ft | 363 kts | 41° |
| 2026-04-24 21:16 | 56.40122 | 17.23104 | 23303 ft | 357 kts | 41° |
| 2026-04-24 21:16 | 56.41666 | 17.26722 | 23152 ft | 366 kts | 46° |
| 2026-04-24 21:16 | 56.43165 | 17.30433 | 23029 ft | 371 kts | 46° |
| 2026-04-24 21:16 | 56.44704 | 17.34235 | 22918 ft | 380 kts | 46° |
| 2026-04-24 21:17 | 56.46415 | 17.38138 | 22944 ft | 411 kts | 43° |
| 2026-04-24 21:17 | 56.48397 | 17.41946 | 23687 ft | 428 kts | 38° |
| 2026-04-24 21:17 | 56.50427 | 17.45685 | 23920 ft | 395 kts | 38° |
| 2026-04-24 21:17 | 56.52413 | 17.48902 | 24207 ft | 374 kts | 28° |
| 2026-04-24 21:18 | 56.54578 | 17.51601 | 24758 ft | 378 kts | 27° |
| 2026-04-24 21:18 | 56.56772 | 17.54209 | 25217 ft | 384 kts | 25° |
| 2026-04-24 21:18 | 56.59102 | 17.56861 | 25192 ft | 405 kts | 25° |
| 2026-04-24 21:18 | 56.61556 | 17.59692 | 25044 ft | 429 kts | 31° |
| 2026-04-24 21:19 | 56.63549 | 17.63904 | 24899 ft | 465 kts | 55° |
| 2026-04-24 21:19 | 56.64591 | 17.69653 | 24815 ft | 495 kts | 77° |
| 2026-04-24 21:19 | 56.64344 | 17.76036 | 24535 ft | 519 kts | 102° |
| 2026-04-24 21:19 | 56.62706 | 17.81995 | 24212 ft | 537 kts | 126° |
| 2026-04-24 21:20 | 56.56302 | 17.87600 | 23238 ft | 501 kts | 183° |
| 2026-04-24 21:20 | 56.53298 | 17.86233 | 23731 ft | 395 kts | 225° |
| 2026-04-24 21:20 | 56.52347 | 17.82756 | 24095 ft | 271 kts | 275° |
| 2026-04-24 21:21 | 56.52290 | 17.79180 | 24109 ft | 311 kts | 277° |
| 2026-04-24 21:21 | 56.52296 | 17.74906 | 24118 ft | 357 kts | 277° |
| 2026-04-24 21:21 | 56.52304 | 17.70394 | 24131 ft | 354 kts | 277° |
| 2026-04-24 21:21 | 56.52302 | 17.65984 | 24123 ft | 347 kts | 277° |
| 2026-04-24 21:22 | 56.52310 | 17.61611 | 24070 ft | 346 kts | 277° |
| 2026-04-24 21:22 | 56.52330 | 17.57311 | 24054 ft | 345 kts | 277° |
| 2026-04-24 21:22 | 56.52393 | 17.52965 | 24078 ft | 342 kts | 279° |
| 2026-04-24 21:22 | 56.52506 | 17.48657 | 24093 ft | 341 kts | 279° |
| 2026-04-24 21:23 | 56.52604 | 17.44379 | 24097 ft | 340 kts | 279° |
| 2026-04-24 21:23 | 56.52626 | 17.40122 | 24080 ft | 347 kts | 277° |
| 2026-04-24 21:23 | 56.52653 | 17.35588 | 24148 ft | 364 kts | 277° |
| 2026-04-24 21:23 | 56.52679 | 17.31022 | 24149 ft | 357 kts | 277° |
| 2026-04-24 21:24 | 56.52693 | 17.26586 | 24073 ft | 347 kts | 277° |
| 2026-04-24 21:24 | 56.52699 | 17.22234 | 24050 ft | 347 kts | 277° |
| 2026-04-24 21:24 | 56.52718 | 17.17831 | 24117 ft | 359 kts | 277° |
| 2026-04-24 21:24 | 56.52747 | 17.13289 | 24178 ft | 351 kts | 277° |
| 2026-04-24 21:25 | 56.52761 | 17.08866 | 24169 ft | 351 kts | 277° |
| 2026-04-24 21:25 | 56.52768 | 17.04461 | 24258 ft | 352 kts | 277° |
| 2026-04-24 21:25 | 56.52767 | 17.00013 | 24188 ft | 356 kts | 277° |
| 2026-04-24 21:25 | 56.52764 | 16.95546 | 23155 ft | 347 kts | 277° |
| 2026-04-24 21:26 | 56.53255 | 16.91532 | 22051 ft | 322 kts | 308° |
| 2026-04-24 21:26 | 56.55045 | 16.89244 | 20874 ft | 319 kts | 345° |
| 2026-04-24 21:26 | 56.57233 | 16.89732 | 19941 ft | 331 kts | 21° |
| 2026-04-24 21:26 | 56.59051 | 16.92450 | 19517 ft | 351 kts | 45° |
| 2026-04-24 21:27 | 56.60194 | 16.96448 | 19109 ft | 366 kts | 68° |
| 2026-04-24 21:27 | 56.60465 | 17.01105 | 18771 ft | 377 kts | 88° |
| 2026-04-24 21:27 | 56.60566 | 17.05728 | 18676 ft | 348 kts | 61° |
| 2026-04-24 21:27 | 56.61946 | 17.09489 | 18891 ft | 391 kts | 45° |
| 2026-04-24 21:28 | 56.63611 | 17.14079 | 19062 ft | 490 kts | 68° |
| 2026-04-24 21:28 | 56.62273 | 17.19739 | 17172 ft | 606 kts | 156° |
| 2026-04-24 21:28 | 56.58524 | 17.21951 | 15663 ft | 537 kts | 171° |
| 2026-04-24 21:28 | 56.57245 | 17.27216 | 18349 ft | 251 kts | 41° |
| 2026-04-24 21:29 | 56.57511 | 17.24893 | 20578 ft | 344 kts | 235° |
| 2026-04-24 21:29 | 56.55701 | 17.26076 | 17333 ft | 388 kts | 50° |
| 2026-04-24 21:29 | 56.56873 | 17.24667 | 16163 ft | 257 kts | 301° |
| 2026-04-24 21:29 | 56.57952 | 17.25773 | 13222 ft | 336 kts | 134° |
| 2026-04-24 21:30 | 56.56758 | 17.28549 | 11586 ft | 218 kts | 28° |
| 2026-04-24 21:30 | 56.58074 | 17.26869 | 10136 ft | 195 kts | 284° |
| 2026-04-24 21:30 | 56.57921 | 17.24544 | 9932 ft | 284 kts | 205° |
| 2026-04-24 21:30 | 56.55563 | 17.24028 | 12345 ft | 431 kts | 171° |
| 2026-04-24 21:31 | 56.52173 | 17.25212 | 14431 ft | 518 kts | 135° |
| 2026-04-24 21:31 | 56.53314 | 17.28913 | 16685 ft | 356 kts | 52° |
| 2026-04-24 21:31 | 56.55415 | 17.32083 | 16914 ft | 432 kts | 3° |
| 2026-04-24 21:31 | 56.56175 | 17.29376 | 15975 ft | 304 kts | 188° |
| 2026-04-24 21:32 | 56.55058 | 17.31438 | 14317 ft | 235 kts | 56° |
| 2026-04-24 21:32 | 56.56654 | 17.32276 | 12310 ft | 292 kts | 23° |
| 2026-04-24 21:32 | 56.57029 | 17.35023 | 12345 ft | 288 kts | 149° |
| 2026-04-24 21:32 | 56.55398 | 17.37141 | 13469 ft | 267 kts | 146° |
| 2026-04-24 21:33 | 56.54995 | 17.39471 | 13184 ft | 189 kts | 31° |
| 2026-04-24 21:33 | 56.55836 | 17.39558 | 12420 ft | 219 kts | 326° |
| 2026-04-24 21:33 | 56.57985 | 17.35699 | 11605 ft | 428 kts | 320° |
| 2026-04-24 21:33 | 56.60513 | 17.32673 | 12873 ft | 418 kts | 1° |
| 2026-04-24 21:34 | 56.61890 | 17.35359 | 9484 ft | 344 kts | 18° |
| 2026-04-24 21:34 | 56.62312 | 17.34213 | 13331 ft | 162 kts | 226° |
| 2026-04-24 21:34 | 56.61014 | 17.32650 | 13188 ft | 231 kts | 153° |
| 2026-04-24 21:34 | 56.60496 | 17.35443 | 11939 ft | 230 kts | 135° |
| 2026-04-24 21:35 | 56.59334 | 17.34609 | 11273 ft | 252 kts | 296° |
| 2026-04-24 21:35 | 56.60521 | 17.35853 | 11262 ft | 295 kts | 54° |
| 2026-04-24 21:35 | 56.61487 | 17.34724 | 8336 ft | 244 kts | 334° |
| 2026-04-24 21:35 | 56.63073 | 17.36405 | 7463 ft | 357 kts | 32° |
| 2026-04-24 21:36 | 56.65422 | 17.39398 | 8116 ft | 437 kts | 35° |
| 2026-04-24 21:36 | 56.65979 | 17.43665 | 12931 ft | 411 kts | 132° |
| 2026-04-24 21:36 | 56.64016 | 17.42739 | 15787 ft | 361 kts | 221° |
| 2026-04-24 21:36 | 56.61652 | 17.40825 | 16633 ft | 406 kts | 187° |
| 2026-04-24 21:37 | 56.58562 | 17.39997 | 15547 ft | 441 kts | 224° |
| 2026-04-24 21:37 | 56.59013 | 17.39241 | 13304 ft | 343 kts | 122° |
| 2026-04-24 21:37 | 56.58015 | 17.38159 | 12622 ft | 226 kts | 323° |
| 2026-04-24 21:37 | 56.58903 | 17.39307 | 11564 ft | 258 kts | 146° |
| 2026-04-24 21:38 | 56.58834 | 17.37966 | 9781 ft | 290 kts | 52° |
| 2026-04-24 21:38 | 56.58075 | 17.40208 | 8047 ft | 287 kts | 210° |
| 2026-04-24 21:38 | 56.59265 | 17.40350 | 4320 ft | 436 kts | 28° |
| 2026-04-24 21:38 | 56.62020 | 17.43898 | 5906 ft | 462 kts | 35° |
| 2026-04-24 21:39 | 56.64606 | 17.47432 | 11703 ft | 474 kts | 36° |
| 2026-04-24 21:39 | 56.64845 | 17.51789 | 16701 ft | 349 kts | 216° |
| 2026-04-24 21:39 | 56.64925 | 17.49037 | 17634 ft | 170 kts | 297° |
| 2026-04-24 21:39 | 56.63532 | 17.49579 | 13503 ft | 350 kts | 152° |
| 2026-04-24 21:40 | 56.62784 | 17.51611 | 10501 ft | 326 kts | 81° |
| 2026-04-24 21:40 | 56.63394 | 17.53079 | 8255 ft | 261 kts | 278° |
| 2026-04-24 21:40 | 56.62720 | 17.53774 | 7625 ft | 263 kts | 27° |
| 2026-04-24 21:40 | 56.62676 | 17.52489 | 9486 ft | 228 kts | 230° |
| 2026-04-24 21:41 | 56.61494 | 17.51833 | 8960 ft | 155 kts | 255° |
| 2026-04-24 21:41 | 56.60713 | 17.50989 | 9637 ft | 171 kts | 155° |
| 2026-04-24 21:41 | 56.59622 | 17.51725 | 6811 ft | 223 kts | 107° |
| 2026-04-24 21:41 | 56.59904 | 17.52212 | 10980 ft | 104 kts | 54° |
| 2026-04-24 21:42 | 56.60322 | 17.54185 | 10229 ft | 270 kts | 66° |
| 2026-04-24 21:42 | 56.61236 | 17.58606 | 9099 ft | 458 kts | 68° |
| 2026-04-24 21:42 | 56.62456 | 17.64663 | 10109 ft | 553 kts | 68° |
| 2026-04-24 21:42 | 56.63580 | 17.70315 | 15532 ft | 332 kts | 67° |
| 2026-04-24 21:43 | 56.63146 | 17.70355 | 22186 ft | 274 kts | 231° |
| 2026-04-24 21:43 | 56.61928 | 17.67496 | 21274 ft | 281 kts | 277° |
| 2026-04-24 21:43 | 56.61968 | 17.63465 | 21127 ft | 356 kts | 276° |
| 2026-04-24 21:43 | 56.61918 | 17.58568 | 20719 ft | 374 kts | 274° |
| 2026-04-24 21:44 | 56.63099 | 17.58091 | 12283 ft | 350 kts | 19° |
| 2026-04-24 21:44 | 56.63640 | 17.60878 | 12185 ft | 294 kts | 160° |
| 2026-04-24 21:44 | 56.62427 | 17.58730 | 11358 ft | 298 kts | 260° |
| 2026-04-24 21:44 | 56.61912 | 17.54646 | 13223 ft | 365 kts | 263° |
| 2026-04-24 21:45 | 56.63121 | 17.54480 | 12709 ft | 341 kts | 96° |
| 2026-04-24 21:45 | 56.61643 | 17.56448 | 15441 ft | 171 kts | 117° |
| 2026-04-24 21:45 | 56.61452 | 17.58917 | 15861 ft | 221 kts | 141° |
| 2026-04-24 21:45 | 56.59315 | 17.56598 | 11670 ft | 531 kts | 247° |
| 2026-04-24 21:46 | 56.60638 | 17.55264 | 10981 ft | 441 kts | 122° |
| 2026-04-24 21:46 | 56.59471 | 17.53208 | 10954 ft | 406 kts | 282° |
| 2026-04-24 21:46 | 56.59625 | 17.48750 | 14461 ft | 240 kts | 287° |
| 2026-04-24 21:46 | 56.59868 | 17.45154 | 15140 ft | 309 kts | 296° |
| 2026-04-24 21:47 | 56.61527 | 17.43754 | 15066 ft | 357 kts | 58° |
| 2026-04-24 21:47 | 56.61594 | 17.47212 | 14815 ft | 454 kts | 139° |
| 2026-04-24 21:47 | 56.61762 | 17.45869 | 14513 ft | 206 kts | 4° |
| 2026-04-24 21:47 | 56.61716 | 17.48484 | 14963 ft | 323 kts | 175° |
| 2026-04-24 21:48 | 56.60890 | 17.47096 | 12514 ft | 322 kts | 259° |
| 2026-04-24 21:48 | 56.59965 | 17.43839 | 14483 ft | 218 kts | 182° |
| 2026-04-24 21:48 | 56.58577 | 17.42221 | 14869 ft | 302 kts | 240° |
| 2026-04-24 21:48 | 56.58155 | 17.40473 | 19888 ft | 99 kts | 18° |
| 2026-04-24 21:49 | 56.58909 | 17.42506 | 18209 ft | 280 kts | 60° |
| 2026-04-24 21:49 | 56.58544 | 17.43383 | 3736 ft | 347 kts | 220° |
| 2026-04-24 21:49 | 56.58199 | 17.42841 | 864 ft | 0 kts | 223° |
| 2026-04-24 21:49 | 56.58044 | 17.42780 | 625 ft | 0 kts | 208° |
| 2026-04-24 21:50 | 56.57479 | 17.42237 | 625 ft | 0 kts | 208° |
| 2026-04-24 21:50 | 56.57789 | 17.42334 | 625 ft | 0 kts | 189° |
| 2026-04-24 21:50 | 56.56439 | 17.41914 | 630 ft | 0 kts | 189° |
| 2026-04-24 21:51 | 56.55245 | 17.41543 | 629 ft | 0 kts | 189° |
| 2026-04-24 21:51 | 56.55244 | 17.41537 | 629 ft | 0 kts | 153° |
| 2026-04-24 21:52 | 56.55244 | 17.41536 | 629 ft | 0 kts | 203° |
| 2026-04-24 21:52 | 56.52531 | 17.39917 | 7552 ft | 470 kts | 195° |
| 2026-04-24 21:52 | 56.49385 | 17.38864 | 13930 ft | 484 kts | 210° |
| 2026-04-24 21:52 | 56.48130 | 17.33568 | 14904 ft | 516 kts | 263° |
| 2026-04-24 21:53 | 56.47479 | 17.26711 | 15763 ft | 579 kts | 259° |
| 2026-04-24 21:53 | 56.46350 | 17.19667 | 15887 ft | 576 kts | 256° |
| 2026-04-24 21:53 | 56.45185 | 17.13067 | 16171 ft | 475 kts | 254° |
| 2026-04-24 21:53 | 56.44078 | 17.07775 | 15955 ft | 422 kts | 254° |
| 2026-04-24 21:54 | 56.43120 | 17.03262 | 15663 ft | 373 kts | 253° |
| 2026-04-24 21:54 | 56.42176 | 16.98890 | 15694 ft | 366 kts | 253° |
| 2026-04-24 21:54 | 56.41214 | 16.94560 | 15880 ft | 372 kts | 252° |
| 2026-04-24 21:54 | 56.40198 | 16.90354 | 15950 ft | 371 kts | 251° |
| 2026-04-24 21:55 | 56.39137 | 16.86111 | 15997 ft | 369 kts | 251° |
| 2026-04-24 21:55 | 56.38071 | 16.81867 | 15989 ft | 370 kts | 251° |
| 2026-04-24 21:55 | 56.37003 | 16.77636 | 15930 ft | 370 kts | 250° |
| 2026-04-24 21:55 | 56.35926 | 16.73455 | 15850 ft | 369 kts | 250° |
| 2026-04-24 21:56 | 56.34830 | 16.69245 | 15783 ft | 370 kts | 249° |
| 2026-04-24 21:56 | 56.33576 | 16.65222 | 15709 ft | 372 kts | 243° |
| 2026-04-24 21:56 | 56.32101 | 16.61366 | 15649 ft | 375 kts | 238° |
| 2026-04-24 21:56 | 56.30511 | 16.57603 | 15644 ft | 373 kts | 239° |
| 2026-04-24 21:57 | 56.29208 | 16.53660 | 15590 ft | 368 kts | 251° |
| 2026-04-24 21:57 | 56.28474 | 16.49325 | 15388 ft | 361 kts | 264° |
| 2026-04-24 21:57 | 56.28089 | 16.44890 | 14612 ft | 353 kts | 267° |
| 2026-04-24 21:57 | 56.27772 | 16.40537 | 13637 ft | 348 kts | 266° |
| 2026-04-24 21:58 | 56.27461 | 16.36297 | 12695 ft | 343 kts | 266° |
| 2026-04-24 21:58 | 56.27144 | 16.32044 | 11840 ft | 340 kts | 266° |
| 2026-04-24 21:58 | 56.26826 | 16.27839 | 11031 ft | 336 kts | 265° |
| 2026-04-24 21:58 | 56.26510 | 16.23725 | 10246 ft | 333 kts | 265° |
| 2026-04-24 21:59 | 56.26188 | 16.19603 | 9457 ft | 329 kts | 265° |
| 2026-04-24 21:59 | 56.25863 | 16.15548 | 8667 ft | 326 kts | 265° |
| 2026-04-24 21:59 | 56.25547 | 16.11591 | 8798 ft | 328 kts | 265° |
| 2026-04-24 21:59 | 56.25209 | 16.07527 | 8904 ft | 328 kts | 264° |
| 2026-04-24 22:00 | 56.24848 | 16.03459 | 8842 ft | 328 kts | 264° |
| 2026-04-24 22:00 | 56.24488 | 15.99403 | 8829 ft | 328 kts | 265° |
| 2026-04-24 22:00 | 56.24226 | 15.95383 | 8893 ft | 328 kts | 267° |
| 2026-04-24 22:00 | 56.24017 | 15.91295 | 8899 ft | 328 kts | 268° |
| 2026-04-24 22:01 | 56.23815 | 15.87225 | 8867 ft | 327 kts | 268° |
| 2026-04-24 22:01 | 56.23614 | 15.83138 | 8796 ft | 327 kts | 268° |
| 2026-04-24 22:01 | 56.23440 | 15.79113 | 8662 ft | 324 kts | 269° |
| 2026-04-24 22:01 | 56.23314 | 15.75039 | 8512 ft | 324 kts | 270° |
| 2026-04-24 22:02 | 56.23224 | 15.71000 | 7839 ft | 320 kts | 270° |
| 2026-04-24 22:02 | 56.23132 | 15.67023 | 6989 ft | 316 kts | 270° |
| 2026-04-24 22:02 | 56.23035 | 15.63150 | 6170 ft | 311 kts | 269° |
| 2026-04-24 22:02 | 56.22931 | 15.59239 | 5259 ft | 311 kts | 269° |
| 2026-04-24 22:03 | 56.22824 | 15.55363 | 4387 ft | 309 kts | 269° |
| 2026-04-24 22:03 | 56.22715 | 15.51529 | 3554 ft | 306 kts | 269° |
| 2026-04-24 22:03 | 56.22603 | 15.47729 | 4042 ft | 314 kts | 270° |
| 2026-04-24 22:03 | 56.22473 | 15.43932 | 3101 ft | 303 kts | 269° |
| 2026-04-24 22:04 | 56.22337 | 15.40133 | 2424 ft | 303 kts | 269° |
| 2026-04-24 22:04 | 56.22205 | 15.36353 | 2026 ft | 303 kts | 269° |
| 2026-04-24 22:04 | 56.22076 | 15.32578 | 2005 ft | 304 kts | 269° |
| 2026-04-24 22:04 | 56.21945 | 15.28840 | 1988 ft | 302 kts | 268° |
| 2026-04-24 22:05 | 56.21811 | 15.25058 | 1943 ft | 302 kts | 268° |
| 2026-04-24 22:05 | 56.21642 | 15.21610 | 1943 ft | 259 kts | 267° |
| 2026-04-24 22:05 | 56.21514 | 15.18437 | 2033 ft | 251 kts | 273° |
| 2026-04-24 22:05 | 56.21610 | 15.15276 | 2038 ft | 254 kts | 273° |
| 2026-04-24 22:06 | 56.21416 | 15.12164 | 2014 ft | 256 kts | 249° |
| 2026-04-24 22:06 | 56.20251 | 15.09764 | 2018 ft | 262 kts | 212° |
| 2026-04-24 22:06 | 56.18502 | 15.08780 | 2016 ft | 267 kts | 192° |
| 2026-04-24 22:06 | 56.16664 | 15.08327 | 2003 ft | 266 kts | 188° |
| 2026-04-24 22:07 | 56.14830 | 15.08009 | 2008 ft | 268 kts | 186° |
| 2026-04-24 22:07 | 56.12974 | 15.07734 | 2000 ft | 266 kts | 186° |
| 2026-04-24 22:07 | 56.11122 | 15.07476 | 2002 ft | 267 kts | 186° |
| 2026-04-24 22:07 | 56.09282 | 15.07231 | 1997 ft | 268 kts | 186° |
| 2026-04-24 22:08 | 56.07423 | 15.06989 | 1996 ft | 267 kts | 186° |
| 2026-04-24 22:08 | 56.05564 | 15.06748 | 1995 ft | 269 kts | 186° |
| 2026-04-24 22:08 | 56.03701 | 15.06811 | 1997 ft | 269 kts | 165° |
| 2026-04-24 22:08 | 56.02250 | 15.08436 | 2006 ft | 247 kts | 127° |
| 2026-04-24 22:09 | 56.01566 | 15.11152 | 2004 ft | 239 kts | 102° |
| 2026-04-24 22:09 | 56.01200 | 15.14033 | 1999 ft | 235 kts | 98° |
| 2026-04-24 22:09 | 56.00909 | 15.16921 | 1993 ft | 233 kts | 97° |
| 2026-04-24 22:09 | 56.00936 | 15.19777 | 2003 ft | 227 kts | 65° |
| 2026-04-24 22:10 | 56.01837 | 15.22033 | 2010 ft | 222 kts | 42° |
| 2026-04-24 22:10 | 56.03035 | 15.23614 | 2015 ft | 215 kts | 14° |
| 2026-04-24 22:10 | 56.04529 | 15.23843 | 2022 ft | 214 kts | 356° |
| 2026-04-24 22:10 | 56.06026 | 15.23657 | 2009 ft | 213 kts | 351° |
| 2026-04-24 22:11 | 56.07479 | 15.23231 | 2001 ft | 213 kts | 348° |
| 2026-04-24 22:11 | 56.08938 | 15.22694 | 1998 ft | 214 kts | 346° |
| 2026-04-24 22:11 | 56.10403 | 15.22188 | 1997 ft | 214 kts | 353° |
| 2026-04-24 22:11 | 56.11873 | 15.22124 | 1994 ft | 215 kts | 1° |
| 2026-04-24 22:12 | 56.13364 | 15.22429 | 1980 ft | 216 kts | 9° |
| 2026-04-24 22:12 | 56.14822 | 15.23110 | 1994 ft | 216 kts | 14° |
| 2026-04-24 22:12 | 56.16262 | 15.23864 | 1941 ft | 218 kts | 15° |
| 2026-04-24 22:12 | 56.17746 | 15.24272 | 1662 ft | 214 kts | 5° |
| 2026-04-24 22:13 | 56.19222 | 15.24582 | 1489 ft | 211 kts | 6° |
| 2026-04-24 22:13 | 56.20493 | 15.24898 | 1286 ft | 171 kts | 7° |
| 2026-04-24 22:13 | 56.21740 | 15.25219 | 1044 ft | 180 kts | 6° |
| 2026-04-24 22:13 | 56.22980 | 15.25513 | 773 ft | 167 kts | 8° |
| 2026-04-24 22:14 | 56.23962 | 15.25789 | 553 ft | 131 kts | 8° |
| 2026-04-24 22:14 | 56.24869 | 15.26029 | 380 ft | 137 kts | 9° |
| 2026-04-24 22:14 | 56.25830 | 15.26299 | 231 ft | 136 kts | 8° |
| 2026-04-24 22:14 | 56.26681 | 15.26526 | 194 ft | 108 kts | 8° |
| 2026-04-24 22:15 | 56.27322 | 15.26707 | 194 ft | 80 kts | 8° |